sensor_id;sensor_type;location;lat;lon;timestamp;temperature;humidity
57664;DHT22;43493;53.098;6.064;2023-05-10T00:00:08;13.30;99.90
57664;DHT22;43493;53.098;6.064;2023-05-10T00:02:34;13.20;99.90
57664;DHT22;43493;53.098;6.064;2023-05-10T00:05:00;13.20;99.90
57664;DHT22;43493;53.098;6.064;2023-05-10T00:07:26;13.30;99.90
57664;DHT22;43493;53.098;6.064;2023-05-10T00:09:52;13.20;99.90
57664;DHT22;43493;53.098;6.064;2023-05-10T00:12:18;13.20;99.90
57664;DHT22;43493;53.098;6.064;2023-05-10T00:14:43;13.20;99.90
57664;DHT22;43493;53.098;6.064;2023-05-10T00:17:09;13.10;99.90
57664;DHT22;43493;53.098;6.064;2023-05-10T00:19:35;13.10;99.90
57664;DHT22;43493;53.098;6.064;2023-05-10T00:22:00;13.10;99.90
57664;DHT22;43493;53.098;6.064;2023-05-10T00:24:27;13.10;99.90
57664;DHT22;43493;53.098;6.064;2023-05-10T00:26:52;13.10;99.90
57664;DHT22;43493;53.098;6.064;2023-05-10T00:29:18;13.10;99.90
57664;DHT22;43493;53.098;6.064;2023-05-10T00:31:44;13.10;99.90
57664;DHT22;43493;53.098;6.064;2023-05-10T00:34:10;13.10;99.90
57664;DHT22;43493;53.098;6.064;2023-05-10T00:36:36;13.10;99.90
57664;DHT22;43493;53.098;6.064;2023-05-10T00:39:02;13.10;99.90
57664;DHT22;43493;53.098;6.064;2023-05-10T00:41:29;13.00;99.90
57664;DHT22;43493;53.098;6.064;2023-05-10T00:43:57;13.00;99.90
57664;DHT22;43493;53.098;6.064;2023-05-10T00:46:24;13.00;99.90
57664;DHT22;43493;53.098;6.064;2023-05-10T00:48:51;13.10;99.90
57664;DHT22;43493;53.098;6.064;2023-05-10T00:51:18;13.00;99.90
57664;DHT22;43493;53.098;6.064;2023-05-10T00:53:46;13.00;99.90
57664;DHT22;43493;53.098;6.064;2023-05-10T00:56:12;13.00;99.90
57664;DHT22;43493;53.098;6.064;2023-05-10T00:58:39;13.00;99.90
57664;DHT22;43493;53.098;6.064;2023-05-10T01:01:06;13.00;99.90
57664;DHT22;43493;53.098;6.064;2023-05-10T01:03:32;13.00;99.90
57664;DHT22;43493;53.098;6.064;2023-05-10T01:05:58;13.00;99.90
57664;DHT22;43493;53.098;6.064;2023-05-10T01:08:24;13.00;99.90
57664;DHT22;43493;53.098;6.064;2023-05-10T01:10:50;13.00;99.90
57664;DHT22;43493;53.098;6.064;2023-05-10T01:15:51;13.00;99.90
57664;DHT22;43493;53.098;6.064;2023-05-10T01:18:20;13.00;99.90
57664;DHT22;43493;53.098;6.064;2023-05-10T01:20:48;13.00;99.90
57664;DHT22;43493;53.098;6.064;2023-05-10T01:29:22;13.00;99.90
57664;DHT22;43493;53.098;6.064;2023-05-10T01:34:46;13.00;99.90
57664;DHT22;43493;53.098;6.064;2023-05-10T01:37:21;13.00;99.90
57664;DHT22;43493;53.098;6.064;2023-05-10T01:40:00;13.00;99.90
57664;DHT22;43493;53.098;6.064;2023-05-10T01:42:29;13.00;99.90
57664;DHT22;43493;53.098;6.064;2023-05-10T01:47:42;13.00;99.90
57664;DHT22;43493;53.098;6.064;2023-05-10T01:50:21;13.00;99.90
57664;DHT22;43493;53.098;6.064;2023-05-10T01:52:52;12.90;99.90
57664;DHT22;43493;53.098;6.064;2023-05-10T01:55:21;12.90;99.90
57664;DHT22;43493;53.098;6.064;2023-05-10T01:57:52;12.90;99.90
57664;DHT22;43493;53.098;6.064;2023-05-10T02:00:20;13.00;99.90
57664;DHT22;43493;53.098;6.064;2023-05-10T02:02:48;13.00;99.90
57664;DHT22;43493;53.098;6.064;2023-05-10T02:05:16;13.00;99.90
57664;DHT22;43493;53.098;6.064;2023-05-10T02:07:43;13.00;99.90
57664;DHT22;43493;53.098;6.064;2023-05-10T02:10:10;12.90;99.90
57664;DHT22;43493;53.098;6.064;2023-05-10T02:12:40;12.90;99.90
57664;DHT22;43493;53.098;6.064;2023-05-10T02:15:07;13.00;99.90
57664;DHT22;43493;53.098;6.064;2023-05-10T02:17:35;12.90;99.90
57664;DHT22;43493;53.098;6.064;2023-05-10T02:20:03;12.90;99.90
57664;DHT22;43493;53.098;6.064;2023-05-10T02:22:31;12.90;99.90
57664;DHT22;43493;53.098;6.064;2023-05-10T02:24:59;12.90;99.90
57664;DHT22;43493;53.098;6.064;2023-05-10T02:32:36;12.90;99.90
57664;DHT22;43493;53.098;6.064;2023-05-10T02:35:03;12.90;99.90
57664;DHT22;43493;53.098;6.064;2023-05-10T02:37:30;12.90;99.90
57664;DHT22;43493;53.098;6.064;2023-05-10T02:39:58;12.90;99.90
57664;DHT22;43493;53.098;6.064;2023-05-10T02:42:27;12.90;99.90
57664;DHT22;43493;53.098;6.064;2023-05-10T02:45:04;12.90;99.90
57664;DHT22;43493;53.098;6.064;2023-05-10T02:47:30;12.90;99.90
57664;DHT22;43493;53.098;6.064;2023-05-10T02:49:56;12.80;99.90
57664;DHT22;43493;53.098;6.064;2023-05-10T02:52:29;12.90;99.90
57664;DHT22;43493;53.098;6.064;2023-05-10T02:54:58;12.90;99.90
57664;DHT22;43493;53.098;6.064;2023-05-10T02:57:33;12.80;99.90
57664;DHT22;43493;53.098;6.064;2023-05-10T03:00:00;12.80;99.90
57664;DHT22;43493;53.098;6.064;2023-05-10T03:02:26;12.80;99.90
57664;DHT22;43493;53.098;6.064;2023-05-10T03:04:52;12.80;99.90
57664;DHT22;43493;53.098;6.064;2023-05-10T03:07:18;12.80;99.90
57664;DHT22;43493;53.098;6.064;2023-05-10T03:09:47;12.80;99.90
57664;DHT22;43493;53.098;6.064;2023-05-10T03:15:20;12.80;99.90
57664;DHT22;43493;53.098;6.064;2023-05-10T03:18:29;12.80;99.90
57664;DHT22;43493;53.098;6.064;2023-05-10T03:21:03;12.80;99.90
57664;DHT22;43493;53.098;6.064;2023-05-10T03:23:37;12.80;99.90
57664;DHT22;43493;53.098;6.064;2023-05-10T03:26:06;12.80;99.90
57664;DHT22;43493;53.098;6.064;2023-05-10T03:28:34;12.80;99.90
57664;DHT22;43493;53.098;6.064;2023-05-10T03:31:00;12.80;99.90
57664;DHT22;43493;53.098;6.064;2023-05-10T03:33:26;12.70;99.90
57664;DHT22;43493;53.098;6.064;2023-05-10T03:35:52;12.80;99.90
57664;DHT22;43493;53.098;6.064;2023-05-10T03:38:18;12.80;99.90
57664;DHT22;43493;53.098;6.064;2023-05-10T03:40:44;12.80;99.90
57664;DHT22;43493;53.098;6.064;2023-05-10T03:43:09;12.80;99.90
57664;DHT22;43493;53.098;6.064;2023-05-10T03:45:35;12.80;99.90
57664;DHT22;43493;53.098;6.064;2023-05-10T03:48:01;12.80;99.90
57664;DHT22;43493;53.098;6.064;2023-05-10T03:50:27;12.80;99.90
57664;DHT22;43493;53.098;6.064;2023-05-10T03:52:53;12.80;99.90
57664;DHT22;43493;53.098;6.064;2023-05-10T03:55:18;12.80;99.90
57664;DHT22;43493;53.098;6.064;2023-05-10T03:57:44;12.80;99.90
57664;DHT22;43493;53.098;6.064;2023-05-10T04:00:10;12.80;99.90
57664;DHT22;43493;53.098;6.064;2023-05-10T04:02:36;12.80;99.90
57664;DHT22;43493;53.098;6.064;2023-05-10T04:05:03;12.80;99.90
57664;DHT22;43493;53.098;6.064;2023-05-10T04:07:28;12.80;99.90
57664;DHT22;43493;53.098;6.064;2023-05-10T04:09:54;12.80;99.90
57664;DHT22;43493;53.098;6.064;2023-05-10T04:12:20;12.80;99.90
57664;DHT22;43493;53.098;6.064;2023-05-10T04:14:46;12.80;99.90
57664;DHT22;43493;53.098;6.064;2023-05-10T04:17:11;12.80;99.90
57664;DHT22;43493;53.098;6.064;2023-05-10T04:19:37;12.80;99.90
57664;DHT22;43493;53.098;6.064;2023-05-10T04:22:03;12.80;99.90
57664;DHT22;43493;53.098;6.064;2023-05-10T04:24:29;12.80;99.90
57664;DHT22;43493;53.098;6.064;2023-05-10T04:26:55;12.80;99.90
57664;DHT22;43493;53.098;6.064;2023-05-10T04:29:21;12.80;99.90
57664;DHT22;43493;53.098;6.064;2023-05-10T04:31:47;12.80;99.90
57664;DHT22;43493;53.098;6.064;2023-05-10T04:34:12;12.80;99.90
57664;DHT22;43493;53.098;6.064;2023-05-10T04:36:38;12.80;99.90
57664;DHT22;43493;53.098;6.064;2023-05-10T04:39:04;12.70;99.90
57664;DHT22;43493;53.098;6.064;2023-05-10T04:41:30;12.70;99.90
57664;DHT22;43493;53.098;6.064;2023-05-10T04:43:55;12.70;99.90
57664;DHT22;43493;53.098;6.064;2023-05-10T04:46:21;12.70;99.90
57664;DHT22;43493;53.098;6.064;2023-05-10T04:48:47;12.70;99.90
57664;DHT22;43493;53.098;6.064;2023-05-10T04:51:12;12.70;99.90
57664;DHT22;43493;53.098;6.064;2023-05-10T04:53:38;12.70;99.90
57664;DHT22;43493;53.098;6.064;2023-05-10T04:56:04;12.70;99.90
57664;DHT22;43493;53.098;6.064;2023-05-10T04:58:30;12.70;99.90
57664;DHT22;43493;53.098;6.064;2023-05-10T05:00:56;12.70;99.90
57664;DHT22;43493;53.098;6.064;2023-05-10T05:03:22;12.70;99.90
57664;DHT22;43493;53.098;6.064;2023-05-10T05:05:48;12.70;99.90
57664;DHT22;43493;53.098;6.064;2023-05-10T05:08:14;12.70;99.90
57664;DHT22;43493;53.098;6.064;2023-05-10T05:10:40;12.70;99.90
57664;DHT22;43493;53.098;6.064;2023-05-10T05:13:05;12.70;99.90
57664;DHT22;43493;53.098;6.064;2023-05-10T05:15:31;12.70;99.90
57664;DHT22;43493;53.098;6.064;2023-05-10T05:17:57;12.70;99.90
57664;DHT22;43493;53.098;6.064;2023-05-10T05:20:23;12.70;99.90
57664;DHT22;43493;53.098;6.064;2023-05-10T05:22:48;12.70;99.90
57664;DHT22;43493;53.098;6.064;2023-05-10T05:25:14;12.80;99.90
57664;DHT22;43493;53.098;6.064;2023-05-10T05:27:41;12.80;99.90
57664;DHT22;43493;53.098;6.064;2023-05-10T05:30:07;12.70;99.90
57664;DHT22;43493;53.098;6.064;2023-05-10T05:32:33;12.80;99.90
57664;DHT22;43493;53.098;6.064;2023-05-10T05:34:59;12.70;99.90
57664;DHT22;43493;53.098;6.064;2023-05-10T05:37:25;12.80;99.90
57664;DHT22;43493;53.098;6.064;2023-05-10T05:39:51;12.80;99.90
57664;DHT22;43493;53.098;6.064;2023-05-10T05:42:16;12.80;99.90
57664;DHT22;43493;53.098;6.064;2023-05-10T05:44:44;12.80;99.90
57664;DHT22;43493;53.098;6.064;2023-05-10T05:47:10;12.80;99.90
57664;DHT22;43493;53.098;6.064;2023-05-10T05:49:36;12.80;99.90
57664;DHT22;43493;53.098;6.064;2023-05-10T05:52:02;12.80;99.90
57664;DHT22;43493;53.098;6.064;2023-05-10T05:54:29;12.80;99.90
57664;DHT22;43493;53.098;6.064;2023-05-10T05:56:59;12.80;99.90
57664;DHT22;43493;53.098;6.064;2023-05-10T05:59:26;12.80;99.90
57664;DHT22;43493;53.098;6.064;2023-05-10T06:01:51;12.80;99.90
57664;DHT22;43493;53.098;6.064;2023-05-10T06:04:18;12.80;99.90
57664;DHT22;43493;53.098;6.064;2023-05-10T06:06:44;12.80;99.90
57664;DHT22;43493;53.098;6.064;2023-05-10T06:09:10;12.80;99.90
57664;DHT22;43493;53.098;6.064;2023-05-10T06:11:36;12.80;99.90
57664;DHT22;43493;53.098;6.064;2023-05-10T06:14:02;12.90;99.90
57664;DHT22;43493;53.098;6.064;2023-05-10T06:16:30;12.80;99.90
57664;DHT22;43493;53.098;6.064;2023-05-10T06:18:55;12.90;99.90
57664;DHT22;43493;53.098;6.064;2023-05-10T06:21:21;12.90;99.90
57664;DHT22;43493;53.098;6.064;2023-05-10T06:23:47;12.90;99.90
57664;DHT22;43493;53.098;6.064;2023-05-10T06:26:13;12.90;99.90
57664;DHT22;43493;53.098;6.064;2023-05-10T06:28:39;12.90;99.90
57664;DHT22;43493;53.098;6.064;2023-05-10T06:31:06;13.00;99.90
57664;DHT22;43493;53.098;6.064;2023-05-10T06:33:32;13.00;99.90
57664;DHT22;43493;53.098;6.064;2023-05-10T06:35:58;13.00;99.90
57664;DHT22;43493;53.098;6.064;2023-05-10T06:38:24;13.00;99.90
57664;DHT22;43493;53.098;6.064;2023-05-10T06:40:50;13.00;99.90
57664;DHT22;43493;53.098;6.064;2023-05-10T06:43:16;13.00;99.90
57664;DHT22;43493;53.098;6.064;2023-05-10T06:45:42;13.00;99.90
57664;DHT22;43493;53.098;6.064;2023-05-10T06:48:07;13.00;99.90
57664;DHT22;43493;53.098;6.064;2023-05-10T06:50:33;13.10;99.90
57664;DHT22;43493;53.098;6.064;2023-05-10T06:53:00;13.10;99.90
57664;DHT22;43493;53.098;6.064;2023-05-10T06:55:27;13.10;99.90
57664;DHT22;43493;53.098;6.064;2023-05-10T06:57:53;13.10;99.90
57664;DHT22;43493;53.098;6.064;2023-05-10T07:00:19;13.10;99.90
57664;DHT22;43493;53.098;6.064;2023-05-10T07:02:45;13.10;99.90
57664;DHT22;43493;53.098;6.064;2023-05-10T07:05:12;13.10;99.90
57664;DHT22;43493;53.098;6.064;2023-05-10T07:07:38;13.10;99.90
57664;DHT22;43493;53.098;6.064;2023-05-10T07:10:04;13.10;99.90
57664;DHT22;43493;53.098;6.064;2023-05-10T07:12:29;13.00;99.90
57664;DHT22;43493;53.098;6.064;2023-05-10T07:14:55;13.10;99.90
57664;DHT22;43493;53.098;6.064;2023-05-10T07:17:21;13.10;99.90
57664;DHT22;43493;53.098;6.064;2023-05-10T07:19:46;13.10;99.90
57664;DHT22;43493;53.098;6.064;2023-05-10T07:22:12;13.10;99.90
57664;DHT22;43493;53.098;6.064;2023-05-10T07:24:38;13.10;99.90
57664;DHT22;43493;53.098;6.064;2023-05-10T07:27:04;13.10;99.90
57664;DHT22;43493;53.098;6.064;2023-05-10T07:29:29;13.10;99.90
57664;DHT22;43493;53.098;6.064;2023-05-10T07:31:55;13.10;99.90
57664;DHT22;43493;53.098;6.064;2023-05-10T07:34:21;13.10;99.90
57664;DHT22;43493;53.098;6.064;2023-05-10T07:36:47;13.10;99.90
57664;DHT22;43493;53.098;6.064;2023-05-10T07:39:13;13.10;99.90
57664;DHT22;43493;53.098;6.064;2023-05-10T07:41:38;13.10;99.90
57664;DHT22;43493;53.098;6.064;2023-05-10T07:44:05;13.10;99.90
57664;DHT22;43493;53.098;6.064;2023-05-10T07:46:31;13.10;99.90
57664;DHT22;43493;53.098;6.064;2023-05-10T07:48:57;13.10;99.90
57664;DHT22;43493;53.098;6.064;2023-05-10T07:51:23;13.10;99.90
57664;DHT22;43493;53.098;6.064;2023-05-10T07:53:48;13.10;99.90
57664;DHT22;43493;53.098;6.064;2023-05-10T07:56:26;13.10;99.90
57664;DHT22;43493;53.098;6.064;2023-05-10T07:59:01;13.10;99.90
57664;DHT22;43493;53.098;6.064;2023-05-10T08:01:30;13.10;99.90
57664;DHT22;43493;53.098;6.064;2023-05-10T08:03:57;13.20;99.90
57664;DHT22;43493;53.098;6.064;2023-05-10T08:06:23;13.20;99.90
57664;DHT22;43493;53.098;6.064;2023-05-10T08:08:49;13.20;99.90
57664;DHT22;43493;53.098;6.064;2023-05-10T08:11:22;13.20;99.90
57664;DHT22;43493;53.098;6.064;2023-05-10T08:13:49;13.30;99.90
57664;DHT22;43493;53.098;6.064;2023-05-10T08:16:15;13.30;99.90
57664;DHT22;43493;53.098;6.064;2023-05-10T08:18:42;13.30;99.90
57664;DHT22;43493;53.098;6.064;2023-05-10T08:21:08;13.30;99.90
57664;DHT22;43493;53.098;6.064;2023-05-10T08:23:36;13.30;99.90
57664;DHT22;43493;53.098;6.064;2023-05-10T08:26:02;13.40;99.90
57664;DHT22;43493;53.098;6.064;2023-05-10T08:28:27;13.40;99.90
57664;DHT22;43493;53.098;6.064;2023-05-10T08:30:53;13.40;99.90
57664;DHT22;43493;53.098;6.064;2023-05-10T08:33:19;13.40;99.90
57664;DHT22;43493;53.098;6.064;2023-05-10T08:35:45;13.50;99.90
57664;DHT22;43493;53.098;6.064;2023-05-10T08:38:11;13.50;99.90
57664;DHT22;43493;53.098;6.064;2023-05-10T08:40:38;13.50;99.90
57664;DHT22;43493;53.098;6.064;2023-05-10T08:43:07;13.60;99.90
57664;DHT22;43493;53.098;6.064;2023-05-10T08:45:38;13.70;99.90
57664;DHT22;43493;53.098;6.064;2023-05-10T08:48:06;13.90;99.90
57664;DHT22;43493;53.098;6.064;2023-05-10T08:50:37;14.00;99.90
57664;DHT22;43493;53.098;6.064;2023-05-10T08:53:09;14.10;99.90
57664;DHT22;43493;53.098;6.064;2023-05-10T08:55:36;14.20;99.90
57664;DHT22;43493;53.098;6.064;2023-05-10T08:58:04;14.20;99.90
57664;DHT22;43493;53.098;6.064;2023-05-10T09:00:31;14.20;99.90
57664;DHT22;43493;53.098;6.064;2023-05-10T09:03:00;14.30;99.90
57664;DHT22;43493;53.098;6.064;2023-05-10T09:05:26;14.30;99.90
57664;DHT22;43493;53.098;6.064;2023-05-10T09:07:52;14.30;99.90
57664;DHT22;43493;53.098;6.064;2023-05-10T09:10:19;14.30;99.90
57664;DHT22;43493;53.098;6.064;2023-05-10T09:12:45;14.30;99.90
57664;DHT22;43493;53.098;6.064;2023-05-10T09:15:15;14.30;99.90
57664;DHT22;43493;53.098;6.064;2023-05-10T09:17:41;14.40;99.90
57664;DHT22;43493;53.098;6.064;2023-05-10T09:20:07;14.40;99.90
57664;DHT22;43493;53.098;6.064;2023-05-10T09:22:34;14.50;99.90
57664;DHT22;43493;53.098;6.064;2023-05-10T09:25:16;14.60;99.90
57664;DHT22;43493;53.098;6.064;2023-05-10T09:27:45;14.60;99.90
57664;DHT22;43493;53.098;6.064;2023-05-10T09:30:24;14.70;99.90
57664;DHT22;43493;53.098;6.064;2023-05-10T09:32:52;14.70;99.90
57664;DHT22;43493;53.098;6.064;2023-05-10T09:35:20;14.80;99.90
57664;DHT22;43493;53.098;6.064;2023-05-10T09:37:48;14.80;99.90
57664;DHT22;43493;53.098;6.064;2023-05-10T09:40:16;14.80;99.90
57664;DHT22;43493;53.098;6.064;2023-05-10T09:42:51;14.90;99.90
57664;DHT22;43493;53.098;6.064;2023-05-10T09:45:16;14.90;99.90
57664;DHT22;43493;53.098;6.064;2023-05-10T09:47:42;15.00;99.90
57664;DHT22;43493;53.098;6.064;2023-05-10T09:50:09;15.10;99.90
57664;DHT22;43493;53.098;6.064;2023-05-10T09:55:15;15.20;99.90
57664;DHT22;43493;53.098;6.064;2023-05-10T09:57:41;15.30;99.90
57664;DHT22;43493;53.098;6.064;2023-05-10T10:00:07;15.40;99.90
57664;DHT22;43493;53.098;6.064;2023-05-10T10:02:35;15.50;99.90
57664;DHT22;43493;53.098;6.064;2023-05-10T10:05:02;15.50;99.90
57664;DHT22;43493;53.098;6.064;2023-05-10T10:07:31;15.50;99.90
57664;DHT22;43493;53.098;6.064;2023-05-10T10:09:58;15.50;99.90
57664;DHT22;43493;53.098;6.064;2023-05-10T10:12:25;15.50;99.90
57664;DHT22;43493;53.098;6.064;2023-05-10T10:14:51;15.30;99.90
57664;DHT22;43493;53.098;6.064;2023-05-10T10:17:17;15.30;99.90
57664;DHT22;43493;53.098;6.064;2023-05-10T10:19:43;15.20;99.90
57664;DHT22;43493;53.098;6.064;2023-05-10T10:22:10;15.20;99.90
57664;DHT22;43493;53.098;6.064;2023-05-10T10:24:39;15.20;99.90
57664;DHT22;43493;53.098;6.064;2023-05-10T10:35:32;15.30;99.90
57664;DHT22;43493;53.098;6.064;2023-05-10T10:37:58;15.30;99.90
57664;DHT22;43493;53.098;6.064;2023-05-10T10:40:29;15.40;99.90
57664;DHT22;43493;53.098;6.064;2023-05-10T10:42:55;15.40;99.90
57664;DHT22;43493;53.098;6.064;2023-05-10T10:45:22;15.40;99.90
57664;DHT22;43493;53.098;6.064;2023-05-10T10:47:49;15.50;99.90
57664;DHT22;43493;53.098;6.064;2023-05-10T10:50:18;15.50;99.90
57664;DHT22;43493;53.098;6.064;2023-05-10T10:52:45;15.50;99.90
57664;DHT22;43493;53.098;6.064;2023-05-10T10:55:19;15.50;99.90
57664;DHT22;43493;53.098;6.064;2023-05-10T10:57:52;15.50;99.90
57664;DHT22;43493;53.098;6.064;2023-05-10T11:00:31;15.50;99.90
57664;DHT22;43493;53.098;6.064;2023-05-10T11:03:10;15.40;99.90
57664;DHT22;43493;53.098;6.064;2023-05-10T11:05:48;15.40;99.90
57664;DHT22;43493;53.098;6.064;2023-05-10T11:08:33;15.40;99.90
57664;DHT22;43493;53.098;6.064;2023-05-10T11:16:23;15.30;99.90
57664;DHT22;43493;53.098;6.064;2023-05-10T11:21:27;15.30;99.90
57664;DHT22;43493;53.098;6.064;2023-05-10T11:23:55;15.30;99.90
57664;DHT22;43493;53.098;6.064;2023-05-10T11:26:25;15.20;99.90
57664;DHT22;43493;53.098;6.064;2023-05-10T11:28:53;15.20;99.90
57664;DHT22;43493;53.098;6.064;2023-05-10T11:31:23;15.20;99.90
57664;DHT22;43493;53.098;6.064;2023-05-10T11:33:51;15.20;99.90
57664;DHT22;43493;53.098;6.064;2023-05-10T11:36:19;15.20;99.90
57664;DHT22;43493;53.098;6.064;2023-05-10T11:38:46;15.20;99.90
57664;DHT22;43493;53.098;6.064;2023-05-10T11:41:12;15.20;99.90
57664;DHT22;43493;53.098;6.064;2023-05-10T11:43:39;15.20;99.90
57664;DHT22;43493;53.098;6.064;2023-05-10T11:46:11;15.20;99.90
57664;DHT22;43493;53.098;6.064;2023-05-10T11:48:39;15.20;99.90
57664;DHT22;43493;53.098;6.064;2023-05-10T11:51:06;15.30;99.90
57664;DHT22;43493;53.098;6.064;2023-05-10T11:53:32;15.30;99.90
57664;DHT22;43493;53.098;6.064;2023-05-10T11:56:07;15.40;99.90
57664;DHT22;43493;53.098;6.064;2023-05-10T11:58:34;15.40;99.90
57664;DHT22;43493;53.098;6.064;2023-05-10T12:01:01;15.40;99.90
57664;DHT22;43493;53.098;6.064;2023-05-10T12:03:27;15.50;99.90
57664;DHT22;43493;53.098;6.064;2023-05-10T12:05:55;15.50;99.90
57664;DHT22;43493;53.098;6.064;2023-05-10T12:08:22;15.60;99.90
57664;DHT22;43493;53.098;6.064;2023-05-10T12:10:49;15.60;99.90
57664;DHT22;43493;53.098;6.064;2023-05-10T12:13:15;15.50;99.90
57664;DHT22;43493;53.098;6.064;2023-05-10T12:15:41;15.40;99.90
57664;DHT22;43493;53.098;6.064;2023-05-10T12:18:14;15.40;99.90
57664;DHT22;43493;53.098;6.064;2023-05-10T12:20:40;15.30;99.90
57664;DHT22;43493;53.098;6.064;2023-05-10T12:23:08;15.30;99.90
57664;DHT22;43493;53.098;6.064;2023-05-10T12:25:38;15.30;99.90
57664;DHT22;43493;53.098;6.064;2023-05-10T12:28:06;15.30;99.90
57664;DHT22;43493;53.098;6.064;2023-05-10T12:30:34;15.40;99.90
57664;DHT22;43493;53.098;6.064;2023-05-10T12:33:08;15.40;99.90
57664;DHT22;43493;53.098;6.064;2023-05-10T12:35:44;15.60;99.90
57664;DHT22;43493;53.098;6.064;2023-05-10T12:38:25;15.70;99.90
57664;DHT22;43493;53.098;6.064;2023-05-10T12:40:51;15.80;99.90
57664;DHT22;43493;53.098;6.064;2023-05-10T12:43:16;16.00;99.90
57664;DHT22;43493;53.098;6.064;2023-05-10T12:45:42;16.10;99.90
57664;DHT22;43493;53.098;6.064;2023-05-10T12:48:13;16.10;99.90
57664;DHT22;43493;53.098;6.064;2023-05-10T12:50:39;16.20;99.90
57664;DHT22;43493;53.098;6.064;2023-05-10T12:53:04;16.20;99.90
57664;DHT22;43493;53.098;6.064;2023-05-10T12:55:30;16.30;99.90
57664;DHT22;43493;53.098;6.064;2023-05-10T12:57:56;16.30;99.90
57664;DHT22;43493;53.098;6.064;2023-05-10T13:00:22;16.40;99.90
57664;DHT22;43493;53.098;6.064;2023-05-10T13:02:47;16.50;99.90
57664;DHT22;43493;53.098;6.064;2023-05-10T13:05:13;16.60;99.90
57664;DHT22;43493;53.098;6.064;2023-05-10T13:07:39;16.60;99.90
57664;DHT22;43493;53.098;6.064;2023-05-10T13:10:06;16.70;99.90
57664;DHT22;43493;53.098;6.064;2023-05-10T13:12:32;16.70;99.90
57664;DHT22;43493;53.098;6.064;2023-05-10T13:14:57;16.70;99.90
57664;DHT22;43493;53.098;6.064;2023-05-10T13:17:25;16.70;99.90
57664;DHT22;43493;53.098;6.064;2023-05-10T13:19:50;16.80;99.90
57664;DHT22;43493;53.098;6.064;2023-05-10T13:22:16;16.80;99.90
57664;DHT22;43493;53.098;6.064;2023-05-10T13:24:42;16.80;99.90
57664;DHT22;43493;53.098;6.064;2023-05-10T13:27:08;16.80;99.90
57664;DHT22;43493;53.098;6.064;2023-05-10T13:29:33;16.90;99.90
57664;DHT22;43493;53.098;6.064;2023-05-10T13:31:59;17.00;99.90
57664;DHT22;43493;53.098;6.064;2023-05-10T13:34:26;17.00;99.90
57664;DHT22;43493;53.098;6.064;2023-05-10T13:36:53;17.10;99.90
57664;DHT22;43493;53.098;6.064;2023-05-10T13:39:20;17.10;99.90
57664;DHT22;43493;53.098;6.064;2023-05-10T13:41:46;17.10;99.90
57664;DHT22;43493;53.098;6.064;2023-05-10T13:44:13;17.00;99.90
57664;DHT22;43493;53.098;6.064;2023-05-10T13:46:40;17.00;99.90
57664;DHT22;43493;53.098;6.064;2023-05-10T13:49:06;17.10;99.90
57664;DHT22;43493;53.098;6.064;2023-05-10T13:51:32;17.10;99.90
57664;DHT22;43493;53.098;6.064;2023-05-10T13:53:58;17.10;99.90
57664;DHT22;43493;53.098;6.064;2023-05-10T13:56:24;17.10;99.90
57664;DHT22;43493;53.098;6.064;2023-05-10T13:58:50;17.10;99.90
57664;DHT22;43493;53.098;6.064;2023-05-10T14:01:15;17.10;99.90
57664;DHT22;43493;53.098;6.064;2023-05-10T14:03:41;17.10;99.90
57664;DHT22;43493;53.098;6.064;2023-05-10T14:06:07;17.20;99.90
57664;DHT22;43493;53.098;6.064;2023-05-10T14:08:34;17.20;99.90
57664;DHT22;43493;53.098;6.064;2023-05-10T14:11:01;17.30;99.90
57664;DHT22;43493;53.098;6.064;2023-05-10T14:13:26;17.30;99.90
57664;DHT22;43493;53.098;6.064;2023-05-10T14:15:53;17.30;99.90
57664;DHT22;43493;53.098;6.064;2023-05-10T14:18:19;17.30;99.90
57664;DHT22;43493;53.098;6.064;2023-05-10T14:20:45;17.30;99.90
57664;DHT22;43493;53.098;6.064;2023-05-10T14:23:11;17.20;99.90
57664;DHT22;43493;53.098;6.064;2023-05-10T14:25:39;17.30;99.90
57664;DHT22;43493;53.098;6.064;2023-05-10T14:28:05;17.40;99.90
57664;DHT22;43493;53.098;6.064;2023-05-10T14:30:31;17.40;99.90
57664;DHT22;43493;53.098;6.064;2023-05-10T14:33:00;17.40;99.90
57664;DHT22;43493;53.098;6.064;2023-05-10T14:35:27;17.40;99.90
57664;DHT22;43493;53.098;6.064;2023-05-10T14:37:53;17.40;99.90
57664;DHT22;43493;53.098;6.064;2023-05-10T14:40:19;17.40;99.90
57664;DHT22;43493;53.098;6.064;2023-05-10T14:42:44;17.40;99.90
57664;DHT22;43493;53.098;6.064;2023-05-10T14:45:10;17.50;99.90
57664;DHT22;43493;53.098;6.064;2023-05-10T14:47:37;17.40;99.90
57664;DHT22;43493;53.098;6.064;2023-05-10T14:50:03;17.40;99.90
57664;DHT22;43493;53.098;6.064;2023-05-10T14:52:29;17.30;99.90
57664;DHT22;43493;53.098;6.064;2023-05-10T14:54:55;17.30;99.90
57664;DHT22;43493;53.098;6.064;2023-05-10T14:57:20;17.30;99.90
57664;DHT22;43493;53.098;6.064;2023-05-10T14:59:46;17.20;99.90
57664;DHT22;43493;53.098;6.064;2023-05-10T15:02:12;17.20;99.90
57664;DHT22;43493;53.098;6.064;2023-05-10T15:04:38;17.10;99.90
57664;DHT22;43493;53.098;6.064;2023-05-10T15:07:03;17.10;99.90
57664;DHT22;43493;53.098;6.064;2023-05-10T15:09:29;17.10;99.90
57664;DHT22;43493;53.098;6.064;2023-05-10T15:11:55;17.10;99.90
57664;DHT22;43493;53.098;6.064;2023-05-10T15:14:22;17.00;99.90
57664;DHT22;43493;53.098;6.064;2023-05-10T15:16:48;16.90;99.90
57664;DHT22;43493;53.098;6.064;2023-05-10T15:19:13;16.90;99.90
57664;DHT22;43493;53.098;6.064;2023-05-10T15:21:39;16.80;99.90
57664;DHT22;43493;53.098;6.064;2023-05-10T15:24:08;16.70;99.90
57664;DHT22;43493;53.098;6.064;2023-05-10T15:26:34;16.70;99.90
57664;DHT22;43493;53.098;6.064;2023-05-10T15:28:59;16.70;99.90
57664;DHT22;43493;53.098;6.064;2023-05-10T15:31:25;16.70;99.90
57664;DHT22;43493;53.098;6.064;2023-05-10T15:33:57;16.70;99.90
57664;DHT22;43493;53.098;6.064;2023-05-10T15:36:24;16.70;99.90
57664;DHT22;43493;53.098;6.064;2023-05-10T15:38:50;16.60;99.90
57664;DHT22;43493;53.098;6.064;2023-05-10T15:41:15;16.60;99.90
57664;DHT22;43493;53.098;6.064;2023-05-10T15:43:41;16.50;99.90
57664;DHT22;43493;53.098;6.064;2023-05-10T15:46:07;16.50;99.90
57664;DHT22;43493;53.098;6.064;2023-05-10T15:48:33;16.50;99.90
57664;DHT22;43493;53.098;6.064;2023-05-10T15:50:58;16.40;99.90
57664;DHT22;43493;53.098;6.064;2023-05-10T15:53:24;16.40;99.90
57664;DHT22;43493;53.098;6.064;2023-05-10T15:55:50;16.30;99.90
57664;DHT22;43493;53.098;6.064;2023-05-10T15:58:16;16.30;99.90
57664;DHT22;43493;53.098;6.064;2023-05-10T16:00:41;16.20;99.90
57664;DHT22;43493;53.098;6.064;2023-05-10T16:03:07;16.20;99.90
57664;DHT22;43493;53.098;6.064;2023-05-10T16:05:33;16.10;99.90
57664;DHT22;43493;53.098;6.064;2023-05-10T16:08:00;16.10;99.90
57664;DHT22;43493;53.098;6.064;2023-05-10T16:10:26;16.10;99.90